createdAt,value
2019-03-12T00:00:13.830Z,98252.36
2019-03-12T00:02:42.293Z,98252.88
2019-03-12T00:05:10.760Z,98254.27
2019-03-12T00:07:39.238Z,98252.06
2019-03-12T00:10:09.138Z,98258.31
2019-03-12T00:12:37.611Z,98256.75
2019-03-12T00:15:07.896Z,98261.34
2019-03-12T00:17:36.358Z,98271.19
2019-03-12T00:20:06.572Z,98274.48
2019-03-12T00:22:35.115Z,98276.67
2019-03-12T00:25:03.694Z,98273.07
2019-03-12T00:27:32.170Z,98272.05
2019-03-12T00:30:00.642Z,98278.86
2019-03-12T00:32:29.119Z,98276.06
2019-03-12T00:34:57.583Z,98273.89
2019-03-12T00:37:26.058Z,98278.21
2019-03-12T00:39:54.575Z,98284.86
2019-03-12T00:42:23.041Z,98293.03
2019-03-12T00:44:51.987Z,98291.91
2019-03-12T00:47:20.487Z,98301.23
2019-03-12T00:49:48.979Z,98292.75
2019-03-12T00:52:17.447Z,98294.08
2019-03-12T00:54:45.942Z,98303.52
2019-03-12T00:57:14.441Z,98304.39
2019-03-12T00:59:42.951Z,98300.06
2019-03-12T01:02:11.422Z,98305.48
2019-03-12T01:04:39.885Z,98305.48
2019-03-12T01:07:08.366Z,98305.20
2019-03-12T01:09:36.897Z,98309.55
2019-03-12T01:12:05.731Z,98315.67
2019-03-12T01:14:34.191Z,98317.49
2019-03-12T01:17:02.691Z,98321.84
2019-03-12T01:19:31.183Z,98325.75
2019-03-12T01:21:59.849Z,98326.47
2019-03-12T01:24:28.398Z,98332.42
2019-03-12T01:26:56.886Z,98351.66
2019-03-12T01:29:25.427Z,98352.16
2019-03-12T01:31:53.891Z,98353.30
2019-03-12T01:34:22.354Z,98348.59
2019-03-12T01:36:50.839Z,98348.37
2019-03-12T01:39:19.321Z,98348.64
2019-03-12T01:41:47.815Z,98343.68
2019-03-12T01:44:16.282Z,98345.10
2019-03-12T01:46:44.776Z,98359.91
2019-03-12T01:49:13.242Z,98354.15
2019-03-12T01:51:41.773Z,98357.16
2019-03-12T01:54:10.238Z,98360.67
2019-03-12T01:56:38.705Z,98368.31
2019-03-12T01:59:07.196Z,98371.27
2019-03-12T02:01:35.707Z,98381.39
2019-03-12T02:04:04.323Z,98386.58
2019-03-12T02:06:32.817Z,98393.48
2019-03-12T02:09:01.287Z,98400.05
2019-03-12T02:11:30.026Z,98399.52
2019-03-12T02:13:58.520Z,98409.34
2019-03-12T02:16:26.981Z,98408.20
2019-03-12T02:18:55.486Z,98412.53
2019-03-12T02:21:23.952Z,98415.80
2019-03-12T02:23:52.417Z,98425.95
2019-03-12T02:26:20.924Z,98421.82
2019-03-12T02:28:49.387Z,98428.43
2019-03-12T02:31:17.920Z,98423.53
2019-03-12T02:33:46.385Z,98436.91
2019-03-12T02:36:14.850Z,98442.09
2019-03-12T02:38:43.343Z,98443.80
2019-03-12T02:41:11.809Z,98450.04
2019-03-12T02:43:40.285Z,98449.52
2019-03-12T02:46:08.828Z,98455.78
2019-03-12T02:48:37.289Z,98461.25
2019-03-12T02:51:05.847Z,98466.98
2019-03-12T02:53:34.317Z,98473.84
2019-03-12T02:56:02.816Z,98484.22
2019-03-12T02:58:31.279Z,98485.02
2019-03-12T03:00:59.771Z,98486.11
2019-03-12T03:03:28.247Z,98488.32
2019-03-12T03:06:01.555Z,98495.14
2019-03-12T03:08:31.679Z,98501.14
2019-03-12T03:11:00.173Z,98504.71
2019-03-12T03:13:28.764Z,98513.72
2019-03-12T03:15:57.218Z,98513.70
2019-03-12T03:18:25.738Z,98519.98
2019-03-12T03:20:54.194Z,98526.83
2019-03-12T03:23:22.696Z,98532.75
2019-03-12T03:25:51.187Z,98535.54
2019-03-12T03:28:19.671Z,98537.50
2019-03-12T03:30:48.149Z,98548.15
2019-03-12T03:33:16.665Z,98546.53
2019-03-12T03:35:45.118Z,98551.98
2019-03-12T03:38:13.659Z,98558.27
2019-03-12T03:40:42.225Z,98566.70
2019-03-12T03:43:10.687Z,98571.12
2019-03-12T03:45:39.224Z,98573.52
2019-03-12T03:48:07.740Z,98579.52
2019-03-12T03:50:36.195Z,98583.90
2019-03-12T03:53:04.766Z,98588.03
2019-03-12T03:55:33.231Z,98592.41
2019-03-12T03:58:01.803Z,98589.66
2019-03-12T04:00:30.339Z,98589.98
2019-03-12T04:02:58.839Z,98593.48
2019-03-12T04:05:27.306Z,98594.02
2019-03-12T04:07:55.867Z,98602.03
2019-03-12T04:10:24.335Z,98606.94
2019-03-12T04:12:52.820Z,98601.47
2019-03-12T04:15:21.304Z,98607.22
2019-03-12T04:17:49.866Z,98601.20
2019-03-12T04:20:19.267Z,98603.40
2019-03-12T04:22:47.942Z,98605.56
2019-03-12T04:25:16.648Z,98607.20
2019-03-12T04:27:45.138Z,98612.40
2019-03-12T04:30:17.648Z,98618.69
2019-03-12T04:32:46.315Z,98623.36
2019-03-12T04:35:30.061Z,98626.36
2019-03-12T04:37:58.555Z,98624.16
2019-03-12T04:40:27.024Z,98629.92
2019-03-12T04:42:55.501Z,98625.25
2019-03-12T04:45:23.979Z,98633.98
2019-03-12T04:47:52.474Z,98628.52
2019-03-12T04:50:20.934Z,98627.42
2019-03-12T04:52:49.426Z,98630.46
2019-03-12T04:55:18.039Z,98635.66
2019-03-12T04:57:46.568Z,98637.57
2019-03-12T05:00:21.314Z,98638.13
2019-03-12T05:02:49.781Z,98652.35
2019-03-12T05:05:18.285Z,98661.63
2019-03-12T05:07:46.756Z,98666.28
2019-03-12T05:10:16.874Z,98673.67
2019-03-12T05:12:45.409Z,98675.58
2019-03-12T05:15:16.191Z,98674.23
2019-03-12T05:17:45.523Z,98672.32
2019-03-12T05:20:15.898Z,98685.72
2019-03-12T05:22:44.429Z,98677.25
2019-03-12T05:25:14.273Z,98675.05
2019-03-12T05:27:43.195Z,98678.88
2019-03-12T05:30:17.707Z,98690.39
2019-03-12T05:32:46.232Z,98689.26
2019-03-12T05:35:14.902Z,98702.15
2019-03-12T05:37:43.631Z,98704.08
2019-03-12T05:40:13.948Z,98708.19
2019-03-12T05:42:42.512Z,98704.59
2019-03-12T05:45:12.919Z,98709.25
2019-03-12T05:47:41.420Z,98715.00
2019-03-12T05:50:12.568Z,98713.65
2019-03-12T05:52:41.067Z,98708.44
2019-03-12T05:55:11.173Z,98716.38
2019-03-12T05:57:39.672Z,98728.95
2019-03-12T06:00:11.416Z,98727.06
2019-03-12T06:02:39.177Z,98734.98
2019-03-12T06:05:08.283Z,98733.91
2019-03-12T06:07:36.775Z,98733.05
2019-03-12T06:10:08.146Z,98740.94
2019-03-12T06:12:36.640Z,98746.39
2019-03-12T06:15:07.991Z,98749.61
2019-03-12T06:17:36.522Z,98756.04
2019-03-12T06:20:08.033Z,98751.09
2019-03-12T06:22:36.512Z,98751.92
2019-03-12T06:25:05.846Z,98764.56
2019-03-12T06:27:34.304Z,98768.37
2019-03-12T06:30:02.872Z,98768.63
2019-03-12T06:32:33.002Z,98773.84
2019-03-12T06:35:03.133Z,98784.48
2019-03-12T06:37:51.271Z,98786.97
2019-03-12T06:40:21.454Z,98786.73
2019-03-12T06:42:57.311Z,98789.98
2019-03-12T06:45:27.477Z,98795.98
2019-03-12T06:48:15.376Z,98795.38
2019-03-12T06:50:45.490Z,98799.29
2019-03-12T06:53:15.633Z,98804.21
2019-03-12T06:56:01.931Z,98803.92
2019-03-12T06:58:48.510Z,98808.86
2019-03-12T07:01:33.873Z,98819.17
2019-03-12T07:04:13.087Z,98824.88
2019-03-12T07:06:49.148Z,98814.53
2019-03-12T07:09:35.613Z,98817.25
2019-03-12T07:12:08.507Z,98813.23
2019-03-12T07:14:54.943Z,98814.88
2019-03-12T07:17:25.060Z,98816.53
2019-03-12T07:20:13.291Z,98824.72
2019-03-12T07:22:46.565Z,98826.61
2019-03-12T07:25:19.476Z,98829.88
2019-03-12T07:27:58.538Z,98841.09
2019-03-12T07:30:34.458Z,98838.66
2019-03-12T07:33:10.093Z,98843.49
2019-03-12T07:35:40.204Z,98841.94
2019-03-12T07:38:28.751Z,98843.30
2019-03-12T07:41:23.580Z,98837.70
2019-03-12T07:43:54.950Z,98846.74
2019-03-12T07:46:25.042Z,98846.33
2019-03-12T07:48:58.752Z,98850.77
2019-03-12T07:51:44.813Z,98857.17
2019-03-12T07:54:14.926Z,98857.55
2019-03-12T07:56:45.034Z,98861.53
2019-03-12T07:59:14.994Z,98861.79
2019-03-12T08:01:47.760Z,98860.95
2019-03-12T08:04:32.905Z,98854.03
2019-03-12T08:07:08.809Z,98859.77
2019-03-12T08:09:50.905Z,98857.84
2019-03-12T08:12:34.413Z,98865.91
2019-03-12T08:15:05.309Z,98860.80
2019-03-12T08:17:51.815Z,98856.34
2019-03-12T08:20:21.951Z,98864.09
2019-03-12T08:22:52.060Z,98865.98
2019-03-12T08:25:38.360Z,98872.86
2019-03-12T08:28:11.018Z,98866.87
2019-03-12T08:30:53.324Z,98869.70
2019-03-12T08:33:25.897Z,98866.70
2019-03-12T08:35:58.820Z,98876.56
2019-03-12T08:38:46.556Z,98878.17
2019-03-12T08:41:16.769Z,98878.37
2019-03-12T08:43:51.342Z,98872.63
2019-03-12T08:46:22.313Z,98871.03
2019-03-12T08:48:55.493Z,98882.22
2019-03-12T08:51:25.620Z,98873.52
2019-03-12T08:54:13.788Z,98875.17
2019-03-12T08:56:52.880Z,98877.66
2019-03-12T08:59:39.200Z,98883.95
2019-03-12T09:02:15.310Z,98885.34
2019-03-12T09:04:45.415Z,98886.69
2019-03-12T09:07:21.490Z,98886.41
2019-03-12T09:09:51.601Z,98880.06
2019-03-12T09:12:21.734Z,98879.06
2019-03-12T09:15:10.045Z,98883.22
2019-03-12T09:17:40.179Z,98879.06
2019-03-12T09:20:11.924Z,98879.98
2019-03-12T09:22:47.503Z,98885.35
2019-03-12T09:25:26.792Z,98891.59
2019-03-12T09:28:15.146Z,98901.25
2019-03-12T09:30:51.278Z,98903.30
2019-03-12T09:33:24.091Z,98901.95
2019-03-12T09:36:03.001Z,98898.72
2019-03-12T09:38:42.382Z,98901.09
2019-03-12T09:41:15.199Z,98903.96
2019-03-12T09:43:48.375Z,98911.89
2019-03-12T09:46:21.370Z,98915.90
2019-03-12T09:48:54.498Z,98899.97
2019-03-12T09:51:24.681Z,98897.52
2019-03-12T09:54:11.126Z,98902.19
2019-03-12T09:56:50.367Z,98918.89
2019-03-12T09:59:36.928Z,98916.48
2019-03-12T10:02:21.969Z,98913.37
2019-03-12T10:04:54.810Z,98918.05
2019-03-12T10:07:24.917Z,98918.33
2019-03-12T10:09:58.240Z,98918.92
2019-03-12T10:12:31.020Z,98914.17
2019-03-12T10:15:17.587Z,98920.30
2019-03-12T10:18:02.455Z,98914.91
2019-03-12T10:20:31.132Z,98919.03
2019-03-12T10:23:06.956Z,98909.13
2019-03-12T10:25:52.993Z,98894.63
2019-03-12T10:28:34.881Z,98877.56
2019-03-12T10:31:10.822Z,98884.88
2019-03-12T10:33:57.490Z,98890.00
2019-03-12T10:36:30.795Z,98894.61
2019-03-12T10:39:22.994Z,98899.30
2019-03-12T10:41:56.070Z,98888.05
2019-03-12T10:44:44.291Z,98891.51
2019-03-12T10:47:14.395Z,98886.16
2019-03-12T10:49:42.854Z,98880.17
2019-03-12T10:52:11.345Z,98872.75
2019-03-12T10:54:39.804Z,98874.70
2019-03-12T10:57:08.389Z,98874.68
2019-03-12T10:59:36.857Z,98873.06
2019-03-12T11:02:05.487Z,98869.33
2019-03-12T11:04:33.951Z,98868.92
2019-03-12T11:07:15.553Z,98869.92
2019-03-12T11:09:32.678Z,98860.95
2019-03-12T11:12:01.098Z,98865.31
2019-03-12T11:14:29.582Z,98862.28
2019-03-12T11:16:58.048Z,98863.66
2019-03-12T11:19:26.515Z,98861.80
2019-03-12T11:21:55.007Z,98864.41
2019-03-12T11:24:23.500Z,98857.84
2019-03-12T11:26:52.004Z,98866.29
2019-03-12T11:29:20.467Z,98869.02
2019-03-12T11:31:48.934Z,98856.89
2019-03-12T11:34:17.434Z,98858.28
2019-03-12T11:36:47.149Z,98853.02
2019-03-12T11:39:15.690Z,98856.82
2019-03-12T11:41:44.163Z,98847.23
2019-03-12T11:44:12.888Z,98848.81
2019-03-12T11:46:45.332Z,98842.05
2019-03-12T11:49:11.789Z,98847.62
2019-03-12T11:51:40.276Z,98838.20
2019-03-12T11:54:10.009Z,98842.37
2019-03-12T11:56:38.834Z,98840.70
2019-03-12T11:59:07.291Z,98842.28
2019-03-12T12:01:35.763Z,98835.08
2019-03-12T12:04:04.371Z,98837.42
2019-03-12T12:06:32.970Z,98834.68
2019-03-12T12:09:01.530Z,98828.45
2019-03-12T12:11:29.997Z,98818.41
2019-03-12T12:13:58.635Z,98810.14
2019-03-12T12:16:27.108Z,98818.00
2019-03-12T12:18:55.582Z,98801.19
2019-03-12T12:21:24.084Z,98809.25
2019-03-12T12:23:52.547Z,98794.34
2019-03-12T12:26:21.023Z,98800.94
2019-03-12T12:28:49.494Z,98807.36
2019-03-12T12:31:17.972Z,98808.69
2019-03-12T12:33:46.460Z,98800.77
2019-03-12T12:36:15.078Z,98789.45
2019-03-12T12:38:43.669Z,98787.20
2019-03-12T12:41:12.161Z,98789.73
2019-03-12T12:43:40.646Z,98783.84
2019-03-12T12:46:09.129Z,98782.25
2019-03-12T12:48:37.617Z,98783.61
2019-03-12T12:51:06.143Z,98780.38
2019-03-12T12:53:35.096Z,98787.22
2019-03-12T12:56:03.733Z,98772.80
2019-03-12T12:58:32.767Z,98772.98
2019-03-12T13:01:01.313Z,98782.24
2019-03-12T13:03:29.855Z,98772.72
2019-03-12T13:05:58.393Z,98781.09
2019-03-12T13:08:26.881Z,98777.10
2019-03-12T13:10:55.408Z,98775.58
2019-03-12T13:13:23.914Z,98771.67
2019-03-12T13:15:52.357Z,98769.73
2019-03-12T13:18:20.856Z,98759.02
2019-03-12T13:20:49.329Z,98755.72
2019-03-12T13:23:17.854Z,98761.38
2019-03-12T13:25:46.339Z,98754.20
2019-03-12T13:28:14.889Z,98750.48
2019-03-12T13:30:43.429Z,98754.95
2019-03-12T13:33:11.974Z,98756.67
2019-03-12T13:35:40.445Z,98755.13
2019-03-12T13:38:08.980Z,98750.53
2019-03-12T13:40:37.454Z,98749.47
2019-03-12T13:43:06.013Z,98754.62
2019-03-12T13:45:34.529Z,98748.59
2019-03-12T13:48:03.455Z,98743.87
2019-03-12T13:50:32.230Z,98739.41
2019-03-12T13:53:00.807Z,98741.81
2019-03-12T13:55:29.387Z,98734.70
2019-03-12T13:57:57.902Z,98732.00
2019-03-12T14:00:28.708Z,98737.37
2019-03-12T14:02:57.317Z,98734.88
2019-03-12T14:05:25.860Z,98738.72
2019-03-12T14:07:54.461Z,98731.72
2019-03-12T14:10:23.970Z,98722.42
2019-03-12T14:12:53.854Z,98729.34
2019-03-12T14:15:33.446Z,98729.16
2019-03-12T14:18:02.103Z,98723.27
2019-03-12T14:20:45.245Z,98720.75
2019-03-12T14:23:16.524Z,98716.56
2019-03-12T14:25:45.544Z,98720.09
2019-03-12T14:28:14.238Z,98711.03
2019-03-12T14:30:42.733Z,98705.19
2019-03-12T14:33:11.575Z,98711.16
2019-03-12T14:35:50.882Z,98700.87
2019-03-12T14:38:10.589Z,98705.33
2019-03-12T14:40:39.238Z,98696.20
2019-03-12T14:43:08.037Z,98696.70
2019-03-12T14:45:38.356Z,98702.75
2019-03-12T14:48:08.398Z,98698.84
2019-03-12T14:50:36.884Z,98698.74
2019-03-12T14:53:20.986Z,98698.56
2019-03-12T14:55:38.923Z,98695.98
2019-03-12T14:58:07.480Z,98688.66
2019-03-12T15:00:36.008Z,98684.02
2019-03-12T15:03:04.507Z,98681.23
2019-03-12T15:05:33.311Z,98683.37
2019-03-12T15:08:01.864Z,98684.78
2019-03-12T15:10:30.409Z,98677.60
2019-03-12T15:12:58.907Z,98681.03
2019-03-12T15:15:27.385Z,98673.31
2019-03-12T15:17:55.889Z,98673.96
2019-03-12T15:20:24.389Z,98661.30
2019-03-12T15:22:52.874Z,98659.19
2019-03-12T15:25:21.368Z,98652.87
2019-03-12T15:27:49.831Z,98653.14
2019-03-12T15:30:20.950Z,98650.08
2019-03-12T15:32:49.477Z,98644.69
2019-03-12T15:35:18.009Z,98643.33
2019-03-12T15:37:46.462Z,98644.02
2019-03-12T15:40:15.293Z,98636.89
2019-03-12T15:42:43.758Z,98632.64
2019-03-12T15:45:13.992Z,98630.96
2019-03-12T15:47:42.535Z,98627.14
2019-03-12T15:50:13.532Z,98626.44
2019-03-12T15:52:42.027Z,98623.83
2019-03-12T15:55:10.620Z,98615.85
2019-03-12T15:57:39.167Z,98616.42
2019-03-12T16:00:10.681Z,98602.59
2019-03-12T16:02:39.172Z,98605.32
2019-03-12T16:05:08.891Z,98608.80
2019-03-12T16:07:37.433Z,98604.81
2019-03-12T16:10:14.202Z,98604.03
2019-03-12T16:12:42.707Z,98595.54
2019-03-12T16:15:12.939Z,98590.54
2019-03-12T16:17:41.415Z,98591.49
2019-03-12T16:20:15.648Z,98585.02
2019-03-12T16:22:44.851Z,98587.45
2019-03-12T16:25:13.662Z,98585.13
2019-03-12T16:27:42.117Z,98579.28
2019-03-12T16:30:13.795Z,98573.82
2019-03-12T16:32:42.290Z,98570.27
2019-03-12T16:35:10.984Z,98575.31
2019-03-12T16:37:39.523Z,98573.09
2019-03-12T16:40:15.888Z,98570.02
2019-03-12T16:42:44.417Z,98572.04
2019-03-12T16:45:14.537Z,98572.84
2019-03-12T16:47:43.006Z,98570.27
2019-03-12T16:50:14.185Z,98572.27
2019-03-12T16:52:42.645Z,98568.95
2019-03-12T16:55:13.245Z,98573.86
2019-03-12T16:57:41.809Z,98572.53
2019-03-12T17:00:18.301Z,98568.44
2019-03-12T17:02:47.108Z,98566.84
2019-03-12T17:05:15.799Z,98569.76
2019-03-12T17:07:44.523Z,98566.76
2019-03-12T17:10:21.146Z,98562.56
2019-03-12T17:12:49.609Z,98564.98
2019-03-12T17:15:26.181Z,98565.34
2019-03-12T17:17:54.697Z,98568.67
2019-03-12T17:20:23.209Z,98563.55
2019-03-12T17:22:51.685Z,98567.86
2019-03-12T17:25:20.275Z,98560.01
2019-03-12T17:27:51.402Z,98554.52
2019-03-12T17:30:24.860Z,98551.89
2019-03-12T17:32:53.421Z,98559.68
2019-03-12T17:35:33.919Z,98561.19
2019-03-12T17:38:02.487Z,98555.47
2019-03-12T17:40:31.024Z,98557.61
2019-03-12T17:42:59.520Z,98561.39
2019-03-12T17:45:27.988Z,98555.00
2019-03-12T17:47:56.520Z,98559.18
2019-03-12T17:50:25.155Z,98560.80
2019-03-12T17:52:53.622Z,98562.75
2019-03-12T17:55:22.157Z,98563.51
2019-03-12T17:57:51.216Z,98563.54
2019-03-12T18:00:30.035Z,98570.47
2019-03-12T18:02:58.648Z,98562.59
2019-03-12T18:05:27.179Z,98571.62
2019-03-12T18:07:55.724Z,98568.02
2019-03-12T18:10:24.203Z,98568.19
2019-03-12T18:12:52.810Z,98563.13
2019-03-12T18:15:21.964Z,98554.55
2019-03-12T18:17:50.495Z,98558.00
2019-03-12T18:20:22.862Z,98551.08
2019-03-12T18:22:51.329Z,98549.77
2019-03-12T18:25:31.542Z,98548.10
2019-03-12T18:28:00.041Z,98549.55
2019-03-12T18:30:28.501Z,98538.58
2019-03-12T18:32:57.161Z,98536.64
2019-03-12T18:35:26.845Z,98535.84
2019-03-12T18:37:55.379Z,98531.05
2019-03-12T18:40:30.270Z,98535.25
2019-03-12T18:42:58.793Z,98532.54
2019-03-12T18:45:31.941Z,98524.50
2019-03-12T18:48:00.443Z,98517.65
2019-03-12T18:50:29.056Z,98516.21
2019-03-12T18:52:57.740Z,98520.60
2019-03-12T18:55:38.111Z,98522.97
2019-03-12T18:58:07.196Z,98518.69
2019-03-12T19:00:36.700Z,98521.47
2019-03-12T19:03:05.229Z,98517.54
2019-03-12T19:05:33.742Z,98510.97
2019-03-12T19:08:02.335Z,98512.05
2019-03-12T19:10:30.914Z,98511.88
2019-03-12T19:12:59.514Z,98508.13
2019-03-12T19:15:28.128Z,98505.27
2019-03-12T19:17:56.746Z,98502.73
2019-03-12T19:20:25.382Z,98497.08
2019-03-12T19:22:53.894Z,98493.03
2019-03-12T19:25:25.468Z,98489.71
2019-03-12T19:27:59.736Z,98479.47
2019-03-12T19:30:25.148Z,98473.47
2019-03-12T19:33:10.435Z,98469.42
2019-03-12T19:35:38.916Z,98472.75
2019-03-12T19:38:07.619Z,98463.61
2019-03-12T19:40:41.918Z,98461.59
2019-03-12T19:43:10.619Z,98456.97
2019-03-12T19:45:39.280Z,98450.10
2019-03-12T19:48:07.888Z,98444.39
2019-03-12T19:50:36.638Z,98436.60
2019-03-12T19:53:06.839Z,98438.37
2019-03-12T19:55:50.397Z,98434.07
2019-03-12T19:58:19.032Z,98432.59
2019-03-12T20:00:48.436Z,98434.87
2019-03-12T20:03:17.086Z,98423.05
2019-03-12T20:05:45.685Z,98427.50
2019-03-12T20:08:14.255Z,98424.19
2019-03-12T20:11:13.797Z,98420.89
2019-03-12T20:14:02.022Z,98415.03
2019-03-12T20:16:36.177Z,98403.80
2019-03-12T20:19:24.254Z,98402.20
2019-03-12T20:22:18.425Z,98389.65
2019-03-12T20:25:23.349Z,98386.92
2019-03-12T20:28:29.690Z,98383.00
2019-03-12T20:31:20.554Z,98378.83
2019-03-12T20:34:14.626Z,98367.86
2019-03-12T20:37:15.077Z,98366.95
2019-03-12T20:40:12.282Z,98359.55
2019-03-12T20:43:17.257Z,98362.91
2019-03-12T20:46:22.018Z,98353.66
2019-03-12T20:49:11.593Z,98350.76
2019-03-12T20:52:16.777Z,98340.88
2019-03-12T20:55:21.676Z,98341.95
2019-03-12T20:58:12.906Z,98334.03
2019-03-12T21:01:02.717Z,98327.44
2019-03-12T21:03:37.021Z,98324.56
2019-03-12T21:06:31.377Z,98319.28
2019-03-12T21:09:20.361Z,98316.73
2019-03-12T21:12:03.823Z,98309.71
2019-03-12T21:14:50.509Z,98309.14
2019-03-12T21:17:22.027Z,98308.86
2019-03-12T21:20:16.596Z,98303.66
2019-03-12T21:23:00.252Z,98301.64
2019-03-12T21:25:37.363Z,98292.54
2019-03-12T21:28:14.478Z,98282.45
2019-03-12T21:30:43.122Z,98276.98
2019-03-12T21:33:15.607Z,98269.50
2019-03-12T21:35:43.122Z,98256.85
2019-03-12T21:38:11.580Z,98258.73
2019-03-12T21:40:40.109Z,98248.05
2019-03-12T21:43:08.574Z,98242.43
2019-03-12T21:45:37.291Z,98240.32
2019-03-12T21:48:05.860Z,98237.18
2019-03-12T21:50:34.397Z,98241.11
2019-03-12T21:53:02.879Z,98222.88
2019-03-12T21:55:31.373Z,98228.15
2019-03-12T21:57:59.948Z,98219.88
2019-03-12T22:00:28.516Z,98206.95
2019-03-12T22:02:57.051Z,98204.14
2019-03-12T22:05:27.196Z,98199.07
2019-03-12T22:07:55.692Z,98192.06
2019-03-12T22:10:24.157Z,98189.05
2019-03-12T22:12:52.684Z,98178.92
2019-03-12T22:15:21.151Z,98166.67
2019-03-12T22:17:51.129Z,98165.77
2019-03-12T22:20:19.601Z,98160.25
2019-03-12T22:22:58.585Z,98163.04
2019-03-12T22:25:27.063Z,98149.48
2019-03-12T22:27:55.556Z,98145.28
2019-03-12T22:30:25.660Z,98152.38
2019-03-12T22:32:54.213Z,98137.94
2019-03-12T22:35:22.824Z,98134.83
2019-03-12T22:37:51.390Z,98130.02
2019-03-12T22:40:19.858Z,98129.03
2019-03-12T22:42:48.351Z,98113.99
2019-03-12T22:45:17.081Z,98120.23
2019-03-12T22:47:45.542Z,98105.79
2019-03-12T22:50:15.877Z,98104.85
2019-03-12T22:52:44.337Z,98110.02
2019-03-12T22:55:14.073Z,98104.77
2019-03-12T22:57:42.711Z,98107.86
2019-03-12T23:00:19.573Z,98100.61
2019-03-12T23:02:48.027Z,98100.45
2019-03-12T23:05:16.815Z,98087.13
2019-03-12T23:07:46.714Z,98086.34
2019-03-12T23:10:17.351Z,98083.39
2019-03-12T23:12:46.153Z,98073.59
2019-03-12T23:15:19.654Z,98082.17
2019-03-12T23:17:48.267Z,98072.26
2019-03-12T23:20:19.721Z,98064.84
2019-03-12T23:22:51.784Z,98069.32
2019-03-12T23:25:18.766Z,98061.12
2019-03-12T23:27:47.379Z,98050.52
2019-03-12T23:30:18.301Z,98049.63
2019-03-12T23:32:46.889Z,98051.97
2019-03-12T23:35:15.568Z,98048.03
2019-03-12T23:37:44.252Z,98025.11
2019-03-12T23:40:19.427Z,98021.25
2019-03-12T23:42:48.059Z,98015.78
2019-03-12T23:45:17.834Z,98018.73
2019-03-12T23:47:49.965Z,98011.73
2019-03-12T23:50:18.379Z,98006.98
2019-03-12T23:52:47.057Z,97995.86
2019-03-12T23:55:17.983Z,97993.48
2019-03-12T23:57:46.858Z,97986.85
